Fayette County (I23)

 

Airport Diagram
No Airport Diagram Available
Current Weather/Forecast (VFR Conditions)
METAR KI23 232335Z AUTO 20011G17KT 10SM CLR 20/16 A2993 RMK AO1
TAF

Airport Information

All Charts
General
Chart Name View
TAKEOFF MINIMUMS
TAKEOFF MINIMUMS

Approaches
Chart Name Download
RNAV (GPS) RWY 23
NDB RWY 23
RNAV (GPS) RWY 23
NDB RWY 23


Airport Statistics
Departures Arrivals Local
All Collected Stats since June 2016: 0 2 0
2020 Stats: 0 1 0
October Stats: 0 0 0

Inbound Traffic (Arrivals) - 0

No inbound traffic.


Outbound Traffic (Departures) - 0

No outbound traffic.


Local Traffic (Pattern) - 0

No local traffic.